Currently 62°F in Hemet, California, USA
62°F
62°F / 56°F
1 mph E
0.00"
Saturday, October 16, 2021 8:16 AM PDT

Hemet, California Weather Summary
Last 36 Hours

Temperature Winds Hourly Humidity Dewpoint
Time Report Norm Report Norm Max Gusts Precip. Rpt. Norm Rpt. Norm Pressure
1,2Sat 08:16 AM  61.5°F  62°F  1 mph E  calm  2 mph  0.00"  18%  52%  16°F  43°F  30.06"
Sat 08:00 AM  60.1°F  61°F  1 mph E  calm  3 mph  0.00"  20%  52%  17°F  42°F  30.05"
Sat 07:00 AM  57.3°F  59°F  1 mph E  calm  3 mph  0.00"  16%  53%  9°F  41°F  30.05"
Sat 06:00 AM  57.8°F  59°F  2 mph E  calm  3 mph  0.00"  16%  53%  10°F  41°F  30.05"
Sat 05:00 AM  56.9°F  60°F  1 mph E  calm  5 mph  0.00"  17%  53%  11°F  42°F  30.04"
Sat 04:00 AM  56.5°F  60°F  2 mph E  calm  3 mph  0.00"  17%  53%  10°F  42°F  30.04"
3Sat 03:35 AM  55.7°F  60°F  1 mph E  calm  3 mph  ----  18%  53%  11°F  42°F  30.05"
Sat 03:00 AM  57.0°F  60°F  1 mph E  calm  3 mph  0.00"  17%  53%  11°F  43°F  30.05"
Sat 02:00 AM  59.0°F  61°F  2 mph E  calm  3 mph  0.00"  14%  53%  8°F  43°F  30.06"
Sat 01:00 AM  59.6°F  61°F  1 mph E  calm  3 mph  0.00"  15%  53%  10°F  43°F  30.07"
Sat 12:01 AM  61.2°F  62°F  2 mph E  calm  5 mph  0.00"  14%  53%  9°F  44°F  30.08"
Fri 11:00 PM  62.1°F  62°F  2 mph E  calm  5 mph  0.00"  13%  52%  8°F  44°F  30.08"
Fri 10:00 PM  61.8°F  64°F  2 mph E  calm  3 mph  0.00"  16%  51%  13°F  45°F  30.08"
Fri 09:00 PM  65.5°F  65°F  1 mph E  calm  5 mph  0.00"  12%  50%  9°F  45°F  30.08"
Fri 08:00 PM  66.9°F  67°F  calm  calm  5 mph  0.00"  11%  48%  8°F  46°F  30.06"
Fri 07:00 PM  69.6°F  70°F  1 mph NW  1 mph  3 mph  0.00"  12%  44%  12°F  46°F  30.05"
Fri 06:00 PM  77.2°F  74°F  calm  1 mph  3 mph  0.00"  10%  38%  14°F  46°F  30.03"
Fri 05:00 PM  83.2°F  79°F  calm  2 mph  6 mph  0.00"  10%  32%  19°F  46°F  30.03"
Fri 04:00 PM  84.1°F  81°F  calm  2 mph  8 mph  0.00"  10%  29%  19°F  45°F  30.05"
Fri 03:00 PM  83.0°F  81°F  3 mph W  2 mph  8 mph  0.00"  10%  29%  19°F  45°F  30.05"
Fri 02:00 PM  82.2°F  80°F  2 mph W  2 mph  9 mph  0.00"  13%  30%  25°F  45°F  30.06"
Fri 01:00 PM  80.1°F  78°F  2 mph W  1 mph  5 mph  0.00"  13%  33%  23°F  45°F  30.08"
Fri 12:00 PM  78.6°F  75°F  1 mph SE  1 mph  8 mph  0.00"  16%  36%  27°F  46°F  30.10"
Fri 11:00 AM  75.4°F  72°F  4 mph W  1 mph  5 mph  0.00"  15%  41%  23°F  46°F  30.12"
Fri 10:00 AM  70.9°F  68°F  1 mph SW  calm  5 mph  0.00"  23%  47%  30°F  47°F  30.12"
Fri 09:00 AM  68.1°F  66°F  calm  calm  3 mph  0.00"  19%  51%  23°F  46°F  30.13"
Fri 08:00 AM  59.0°F  60°F  2 mph SE  calm  3 mph  0.00"  25%  53%  22°F  43°F  30.12"
Fri 07:00 AM  56.7°F  59°F  2 mph SE  calm  3 mph  0.00"  25%  53%  20°F  41°F  30.11"
Fri 06:00 AM  59.6°F  59°F  2 mph SE  calm  3 mph  0.00"  23%  53%  20°F  41°F  30.09"
Fri 05:00 AM  56.5°F  59°F  2 mph SE  calm  3 mph  0.00"  26%  54%  21°F  42°F  30.08"
Fri 04:00 AM  59.5°F  60°F  1 mph SE  calm  5 mph  0.00"  23%  54%  20°F  42°F  30.08"
Fri 03:00 AM  56.9°F  60°F  1 mph S  calm  3 mph  0.00"  27%  54%  22°F  43°F  30.09"
Fri 02:00 AM  60.5°F  61°F  1 mph S  calm  3 mph  0.00"  22%  53%  20°F  43°F  30.09"
Fri 01:00 AM  59.5°F  61°F  2 mph S  calm  3 mph  0.00"  23%  54%  20°F  43°F  30.09"
Fri 12:01 AM  59.6°F  62°F  1 mph S  calm  2 mph  0.00"  22%  53%  19°F  44°F  30.09"
Thu 11:00 PM  60.2°F  62°F  1 mph S  calm  3 mph  0.00"  23%  53%  21°F  44°F  30.09"
Thu 10:00 PM  61.2°F  64°F  1 mph S  calm  3 mph  0.00"  22%  51%  20°F  45°F  30.09"
Thu 09:00 PM  63.2°F  65°F  1 mph S  calm  2 mph  0.00"  20%  49%  20°F  45°F  30.07"

  1. Current weather data. No green row appears if the current weather data is also the high or low for the current day.
  2. High temperature for the current day.
  3. Low temperature for the current day.

The Hemet weather pages are a service of WeatherCurrents. Hemet, California is located in the San Jacinto Valley, in western Riverside County, at the foot of the San Jacinto mountains.
Copyright ©2021  WeatherCurrents. All rights reserved. - Submit questions and comments - Privacy Policy

This page automatically refreshes every 10 minutes.